sensor_id;sensor_type;location;lat;lon;timestamp;pressure;altitude;pressure_sealevel;temperature;humidity
4836;BME280;2432;51.226;6.904;2022-07-22T00:00:42;101402.91;;;16.59;100.00
4836;BME280;2432;51.226;6.904;2022-07-22T00:03:09;101405.56;;;16.59;100.00
4836;BME280;2432;51.226;6.904;2022-07-22T00:05:35;101408.31;;;16.55;100.00
4836;BME280;2432;51.226;6.904;2022-07-22T00:08:02;101410.47;;;16.44;100.00
4836;BME280;2432;51.226;6.904;2022-07-22T00:10:29;101410.47;;;16.44;100.00
4836;BME280;2432;51.226;6.904;2022-07-22T00:12:55;101405.41;;;16.36;100.00
4836;BME280;2432;51.226;6.904;2022-07-22T00:15:22;101404.78;;;16.28;100.00
4836;BME280;2432;51.226;6.904;2022-07-22T00:17:48;101412.84;;;16.23;100.00
4836;BME280;2432;51.226;6.904;2022-07-22T00:20:15;101403.13;;;16.24;100.00
4836;BME280;2432;51.226;6.904;2022-07-22T00:22:41;101402.94;;;16.30;100.00
4836;BME280;2432;51.226;6.904;2022-07-22T00:25:08;101404.59;;;16.34;100.00
4836;BME280;2432;51.226;6.904;2022-07-22T00:27:35;101404.09;;;16.21;100.00
4836;BME280;2432;51.226;6.904;2022-07-22T00:30:02;101399.59;;;16.25;100.00
4836;BME280;2432;51.226;6.904;2022-07-22T00:32:29;101408.13;;;16.33;100.00
4836;BME280;2432;51.226;6.904;2022-07-22T00:34:56;101407.47;;;16.26;100.00
4836;BME280;2432;51.226;6.904;2022-07-22T00:37:22;101401.22;;;16.29;100.00
4836;BME280;2432;51.226;6.904;2022-07-22T00:39:49;101407.31;;;16.31;100.00
4836;BME280;2432;51.226;6.904;2022-07-22T00:42:15;101411.97;;;16.23;100.00
4836;BME280;2432;51.226;6.904;2022-07-22T00:44:42;101402.38;;;16.20;100.00
4836;BME280;2432;51.226;6.904;2022-07-22T00:47:09;101401.63;;;16.17;100.00
4836;BME280;2432;51.226;6.904;2022-07-22T00:49:36;101396.28;;;16.18;100.00
4836;BME280;2432;51.226;6.904;2022-07-22T00:52:03;101399.78;;;16.19;100.00
4836;BME280;2432;51.226;6.904;2022-07-22T00:54:32;101404.22;;;16.18;100.00
4836;BME280;2432;51.226;6.904;2022-07-22T00:56:59;101400.78;;;16.15;100.00
4836;BME280;2432;51.226;6.904;2022-07-22T00:59:25;101400.94;;;16.10;100.00
4836;BME280;2432;51.226;6.904;2022-07-22T01:01:52;101399.84;;;16.16;100.00
4836;BME280;2432;51.226;6.904;2022-07-22T01:04:19;101396.34;;;16.17;100.00
4836;BME280;2432;51.226;6.904;2022-07-22T01:06:46;101400.06;;;16.09;100.00
4836;BME280;2432;51.226;6.904;2022-07-22T01:09:13;101394.91;;;16.05;100.00
4836;BME280;2432;51.226;6.904;2022-07-22T01:11:41;101392.13;;;16.09;100.00
4836;BME280;2432;51.226;6.904;2022-07-22T01:14:08;101393.28;;;16.01;100.00
4836;BME280;2432;51.226;6.904;2022-07-22T01:16:34;101391.56;;;15.98;100.00
4836;BME280;2432;51.226;6.904;2022-07-22T01:19:03;101389.84;;;15.97;100.00
4836;BME280;2432;51.226;6.904;2022-07-22T01:21:30;101391.56;;;15.98;100.00
4836;BME280;2432;51.226;6.904;2022-07-22T01:23:57;101395.06;;;16.00;100.00
4836;BME280;2432;51.226;6.904;2022-07-22T01:26:24;101396.78;;;16.01;100.00
4836;BME280;2432;51.226;6.904;2022-07-22T01:28:50;101395.88;;;16.02;100.00
4836;BME280;2432;51.226;6.904;2022-07-22T01:31:17;101392.50;;;15.97;100.00
4836;BME280;2432;51.226;6.904;2022-07-22T01:33:44;101392.31;;;16.03;100.00
4836;BME280;2432;51.226;6.904;2022-07-22T01:36:11;101392.47;;;15.99;100.00
4836;BME280;2432;51.226;6.904;2022-07-22T01:38:37;101388.06;;;15.99;100.00
4836;BME280;2432;51.226;6.904;2022-07-22T01:41:04;101383.75;;;15.95;100.00
4836;BME280;2432;51.226;6.904;2022-07-22T01:43:31;101385.47;;;15.96;100.00
4836;BME280;2432;51.226;6.904;2022-07-22T01:45:58;101383.53;;;16.03;100.00
4836;BME280;2432;51.226;6.904;2022-07-22T01:48:24;101384.28;;;16.06;100.00
4836;BME280;2432;51.226;6.904;2022-07-22T01:50:51;101386.22;;;16.01;100.00
4836;BME280;2432;51.226;6.904;2022-07-22T01:53:18;101388.88;;;16.01;100.00
4836;BME280;2432;51.226;6.904;2022-07-22T01:55:45;101387.09;;;16.02;100.00
4836;BME280;2432;51.226;6.904;2022-07-22T01:58:12;101380.94;;;16.01;100.00
4836;BME280;2432;51.226;6.904;2022-07-22T02:00:38;101379.06;;;16.05;100.00
4836;BME280;2432;51.226;6.904;2022-07-22T02:03:05;101377.50;;;15.99;100.00
4836;BME280;2432;51.226;6.904;2022-07-22T02:05:33;101382.78;;;15.99;100.00
4836;BME280;2432;51.226;6.904;2022-07-22T02:08:01;101373.94;;;16.00;100.00
4836;BME280;2432;51.226;6.904;2022-07-22T02:10:28;101383.63;;;16.00;100.00
4836;BME280;2432;51.226;6.904;2022-07-22T02:12:56;101376.63;;;15.97;100.00
4836;BME280;2432;51.226;6.904;2022-07-22T02:15:23;101380.19;;;15.96;100.00
4836;BME280;2432;51.226;6.904;2022-07-22T02:17:49;101376.63;;;15.97;100.00
4836;BME280;2432;51.226;6.904;2022-07-22T02:20:16;101375.84;;;15.95;100.00
4836;BME280;2432;51.226;6.904;2022-07-22T02:22:43;101375.66;;;16.01;100.00
4836;BME280;2432;51.226;6.904;2022-07-22T02:25:10;101371.28;;;16.00;100.00
4836;BME280;2432;51.226;6.904;2022-07-22T02:27:37;101370.19;;;16.07;100.00
4836;BME280;2432;51.226;6.904;2022-07-22T02:30:05;101372.84;;;16.07;100.00
4836;BME280;2432;51.226;6.904;2022-07-22T02:32:31;101369.28;;;16.08;100.00
4836;BME280;2432;51.226;6.904;2022-07-22T02:34:58;101373.44;;;16.16;100.00
4836;BME280;2432;51.226;6.904;2022-07-22T02:37:25;101367.69;;;16.03;100.00
4836;BME280;2432;51.226;6.904;2022-07-22T02:39:52;101378.13;;;16.06;100.00
4836;BME280;2432;51.226;6.904;2022-07-22T02:42:18;101363.13;;;16.08;100.00
4836;BME280;2432;51.226;6.904;2022-07-22T02:44:45;101367.44;;;16.10;100.00
4836;BME280;2432;51.226;6.904;2022-07-22T02:47:11;101357.56;;;16.16;100.00
4836;BME280;2432;51.226;6.904;2022-07-22T02:49:38;101367.34;;;16.14;100.00
4836;BME280;2432;51.226;6.904;2022-07-22T02:52:04;101364.75;;;16.12;100.00
4836;BME280;2432;51.226;6.904;2022-07-22T02:54:31;101370.09;;;16.10;100.00
4836;BME280;2432;51.226;6.904;2022-07-22T02:56:57;101368.16;;;16.16;100.00
4836;BME280;2432;51.226;6.904;2022-07-22T02:59:24;101367.97;;;16.22;100.00
4836;BME280;2432;51.226;6.904;2022-07-22T03:01:51;101372.44;;;16.20;100.00
4836;BME280;2432;51.226;6.904;2022-07-22T03:04:17;101371.63;;;16.18;100.00
4836;BME280;2432;51.226;6.904;2022-07-22T03:06:44;101380.50;;;16.15;100.00
4836;BME280;2432;51.226;6.904;2022-07-22T03:09:11;101378.94;;;16.09;100.00
4836;BME280;2432;51.226;6.904;2022-07-22T03:11:37;101381.66;;;16.06;100.00
4836;BME280;2432;51.226;6.904;2022-07-22T03:14:04;101381.66;;;16.06;100.00
4836;BME280;2432;51.226;6.904;2022-07-22T03:16:30;101379.78;;;16.10;100.00
4836;BME280;2432;51.226;6.904;2022-07-22T03:18:57;101380.75;;;16.07;100.00
4836;BME280;2432;51.226;6.904;2022-07-22T03:21:25;101385.94;;;16.10;100.00
4836;BME280;2432;51.226;6.904;2022-07-22T03:23:51;101383.41;;;16.07;100.00
4836;BME280;2432;51.226;6.904;2022-07-22T03:26:21;101377.38;;;16.02;100.00
4836;BME280;2432;51.226;6.904;2022-07-22T03:28:47;101376.63;;;15.99;100.00
4836;BME280;2432;51.226;6.904;2022-07-22T03:31:14;101381.00;;;16.00;100.00
4836;BME280;2432;51.226;6.904;2022-07-22T03:33:41;101374.88;;;15.98;100.00
4836;BME280;2432;51.226;6.904;2022-07-22T03:36:08;101381.00;;;15.98;100.00
4836;BME280;2432;51.226;6.904;2022-07-22T03:38:35;101369.50;;;16.01;100.00
4836;BME280;2432;51.226;6.904;2022-07-22T03:41:02;101371.28;;;16.00;100.00
4836;BME280;2432;51.226;6.904;2022-07-22T03:43:29;101379.28;;;15.97;100.00
4836;BME280;2432;51.226;6.904;2022-07-22T03:45:56;101378.47;;;15.95;100.00
4836;BME280;2432;51.226;6.904;2022-07-22T03:48:23;101373.81;;;16.03;100.00
4836;BME280;2432;51.226;6.904;2022-07-22T03:50:49;101379.06;;;16.05;100.00
4836;BME280;2432;51.226;6.904;2022-07-22T03:53:17;101380.66;;;16.10;100.00
4836;BME280;2432;51.226;6.904;2022-07-22T03:55:43;101383.13;;;16.15;100.00
4836;BME280;2432;51.226;6.904;2022-07-22T03:58:10;101386.13;;;16.04;100.00
4836;BME280;2432;51.226;6.904;2022-07-22T04:00:37;101386.81;;;16.11;100.00
4836;BME280;2432;51.226;6.904;2022-07-22T04:03:03;101383.28;;;16.10;100.00
4836;BME280;2432;51.226;6.904;2022-07-22T04:05:30;101377.19;;;16.08;100.00
4836;BME280;2432;51.226;6.904;2022-07-22T04:07:56;101376.47;;;16.03;100.00
4836;BME280;2432;51.226;6.904;2022-07-22T04:10:23;101376.34;;;16.06;100.00
4836;BME280;2432;51.226;6.904;2022-07-22T04:12:49;101376.34;;;16.08;100.00
4836;BME280;2432;51.226;6.904;2022-07-22T04:15:16;101371.94;;;16.07;100.00
4836;BME280;2432;51.226;6.904;2022-07-22T04:17:42;101376.41;;;16.05;100.00
4836;BME280;2432;51.226;6.904;2022-07-22T04:20:09;101386.50;;;15.92;100.00
4836;BME280;2432;51.226;6.904;2022-07-22T04:22:36;101377.13;;;15.82;100.00
4836;BME280;2432;51.226;6.904;2022-07-22T04:25:03;101372.72;;;15.81;100.00
4836;BME280;2432;51.226;6.904;2022-07-22T04:27:29;101365.53;;;15.86;100.00
4836;BME280;2432;51.226;6.904;2022-07-22T04:29:56;101361.31;;;15.80;100.00
4836;BME280;2432;51.226;6.904;2022-07-22T04:32:23;101361.06;;;15.88;100.00
4836;BME280;2432;51.226;6.904;2022-07-22T04:34:49;101361.81;;;15.93;100.00
4836;BME280;2432;51.226;6.904;2022-07-22T04:37:16;101363.50;;;15.96;100.00
4836;BME280;2432;51.226;6.904;2022-07-22T04:39:42;101358.25;;;15.94;100.00
4836;BME280;2432;51.226;6.904;2022-07-22T04:42:09;101358.94;;;16.01;100.00
4836;BME280;2432;51.226;6.904;2022-07-22T04:44:35;101368.53;;;16.03;100.00
4836;BME280;2432;51.226;6.904;2022-07-22T04:47:02;101362.28;;;16.06;100.00
4836;BME280;2432;51.226;6.904;2022-07-22T04:49:34;101365.78;;;16.06;100.00
4836;BME280;2432;51.226;6.904;2022-07-22T04:52:01;101361.44;;;16.05;100.00
4836;BME280;2432;51.226;6.904;2022-07-22T04:54:27;101357.88;;;16.06;100.00
4836;BME280;2432;51.226;6.904;2022-07-22T04:56:54;101369.06;;;16.15;100.00
4836;BME280;2432;51.226;6.904;2022-07-22T04:59:21;101369.00;;;16.18;100.00
4836;BME280;2432;51.226;6.904;2022-07-22T05:01:49;101366.19;;;16.22;100.00
4836;BME280;2432;51.226;6.904;2022-07-22T05:04:16;101371.41;;;16.24;100.00
4836;BME280;2432;51.226;6.904;2022-07-22T05:06:43;101375.81;;;16.25;100.00
4836;BME280;2432;51.226;6.904;2022-07-22T05:09:09;101381.34;;;16.17;100.00
4836;BME280;2432;51.226;6.904;2022-07-22T05:11:36;101386.00;;;16.09;100.00
4836;BME280;2432;51.226;6.904;2022-07-22T05:14:02;101382.44;;;16.10;100.00
4836;BME280;2432;51.226;6.904;2022-07-22T05:16:29;101379.91;;;16.05;100.00
4836;BME280;2432;51.226;6.904;2022-07-22T05:18:56;101385.25;;;16.04;100.00
4836;BME280;2432;51.226;6.904;2022-07-22T05:21:23;101384.28;;;16.06;100.00
4836;BME280;2432;51.226;6.904;2022-07-22T05:23:49;101384.28;;;16.06;100.00
4836;BME280;2432;51.226;6.904;2022-07-22T05:26:16;101373.81;;;16.03;100.00
4836;BME280;2432;51.226;6.904;2022-07-22T05:28:43;101384.16;;;16.11;100.00
4836;BME280;2432;51.226;6.904;2022-07-22T05:31:09;101379.41;;;16.22;100.00
4836;BME280;2432;51.226;6.904;2022-07-22T05:33:36;101380.25;;;16.23;100.00
4836;BME280;2432;51.226;6.904;2022-07-22T05:36:03;101379.28;;;16.27;100.00
4836;BME280;2432;51.226;6.904;2022-07-22T05:38:33;101376.97;;;16.16;100.00
4836;BME280;2432;51.226;6.904;2022-07-22T05:41:00;101380.75;;;16.07;100.00
4836;BME280;2432;51.226;6.904;2022-07-22T05:43:27;101375.28;;;16.14;100.00
4836;BME280;2432;51.226;6.904;2022-07-22T05:45:53;101377.84;;;16.17;100.00
4836;BME280;2432;51.226;6.904;2022-07-22T05:48:20;101379.34;;;16.24;100.00
4836;BME280;2432;51.226;6.904;2022-07-22T05:50:47;101373.94;;;16.28;100.00
4836;BME280;2432;51.226;6.904;2022-07-22T05:53:14;101376.41;;;16.33;100.00
4836;BME280;2432;51.226;6.904;2022-07-22T05:55:41;101367.59;;;16.34;100.00
4836;BME280;2432;51.226;6.904;2022-07-22T05:58:08;101366.63;;;16.36;100.00
4836;BME280;2432;51.226;6.904;2022-07-22T06:00:35;101364.72;;;16.40;100.00
4836;BME280;2432;51.226;6.904;2022-07-22T06:03:01;101370.94;;;16.39;100.00
4836;BME280;2432;51.226;6.904;2022-07-22T06:05:28;101371.84;;;16.38;100.00
4836;BME280;2432;51.226;6.904;2022-07-22T06:08:04;101366.50;;;16.39;100.00
4836;BME280;2432;51.226;6.904;2022-07-22T06:10:30;101364.84;;;16.37;100.00
4836;BME280;2432;51.226;6.904;2022-07-22T06:12:57;101369.22;;;16.38;100.00
4836;BME280;2432;51.226;6.904;2022-07-22T06:15:24;101365.59;;;16.40;100.00
4836;BME280;2432;51.226;6.904;2022-07-22T06:17:53;101365.41;;;16.47;100.00
4836;BME280;2432;51.226;6.904;2022-07-22T06:20:19;101368.84;;;16.49;100.00
4836;BME280;2432;51.226;6.904;2022-07-22T06:22:46;101375.94;;;16.48;100.00
4836;BME280;2432;51.226;6.904;2022-07-22T06:25:13;101370.56;;;16.51;100.00
4836;BME280;2432;51.226;6.904;2022-07-22T06:28:00;101375.75;;;16.54;100.00
4836;BME280;2432;51.226;6.904;2022-07-22T06:30:26;101377.41;;;16.57;100.00
4836;BME280;2432;51.226;6.904;2022-07-22T06:32:53;101377.47;;;16.55;100.00
4836;BME280;2432;51.226;6.904;2022-07-22T06:35:22;101376.53;;;16.56;100.00
4836;BME280;2432;51.226;6.904;2022-07-22T06:37:52;101379.09;;;16.59;100.00
4836;BME280;2432;51.226;6.904;2022-07-22T06:40:31;101375.53;;;16.60;100.00
4836;BME280;2432;51.226;6.904;2022-07-22T06:42:58;101379.06;;;16.61;100.00
4836;BME280;2432;51.226;6.904;2022-07-22T06:45:24;101378.13;;;16.62;100.00
4836;BME280;2432;51.226;6.904;2022-07-22T06:47:51;101373.72;;;16.62;100.00
4836;BME280;2432;51.226;6.904;2022-07-22T06:50:18;101370.16;;;16.63;100.00
4836;BME280;2432;51.226;6.904;2022-07-22T06:52:44;101380.00;;;16.58;100.00
4836;BME280;2432;51.226;6.904;2022-07-22T06:55:11;101368.56;;;16.58;100.00
4836;BME280;2432;51.226;6.904;2022-07-22T06:57:38;101373.84;;;16.58;100.00
4836;BME280;2432;51.226;6.904;2022-07-22T07:00:06;101371.13;;;16.61;100.00
4836;BME280;2432;51.226;6.904;2022-07-22T07:02:33;101370.16;;;16.63;100.00
4836;BME280;2432;51.226;6.904;2022-07-22T07:05:00;101361.28;;;16.64;100.00
4836;BME280;2432;51.226;6.904;2022-07-22T07:07:27;101365.56;;;16.70;100.00
4836;BME280;2432;51.226;6.904;2022-07-22T07:09:54;101366.78;;;16.58;100.00
4836;BME280;2432;51.226;6.904;2022-07-22T07:12:21;101364.00;;;16.63;100.00
4836;BME280;2432;51.226;6.904;2022-07-22T07:14:47;101377.00;;;16.71;100.00
4836;BME280;2432;51.226;6.904;2022-07-22T07:17:34;101363.66;;;16.74;100.00
4836;BME280;2432;51.226;6.904;2022-07-22T07:20:01;101368.91;;;16.75;100.00
4836;BME280;2432;51.226;6.904;2022-07-22T07:22:29;101370.63;;;16.76;100.00
4836;BME280;2432;51.226;6.904;2022-07-22T07:24:56;101362.66;;;16.78;100.00
4836;BME280;2432;51.226;6.904;2022-07-22T07:27:23;101369.63;;;16.80;100.00
4836;BME280;2432;51.226;6.904;2022-07-22T07:29:51;101368.69;;;16.81;100.00
4836;BME280;2432;51.226;6.904;2022-07-22T07:32:18;101370.47;;;16.81;100.00
4836;BME280;2432;51.226;6.904;2022-07-22T07:34:44;101368.69;;;16.81;100.00
4836;BME280;2432;51.226;6.904;2022-07-22T07:37:11;101365.13;;;16.82;100.00
4836;BME280;2432;51.226;6.904;2022-07-22T07:39:38;101366.06;;;16.81;100.00
4836;BME280;2432;51.226;6.904;2022-07-22T07:42:04;101363.34;;;16.83;100.00
4836;BME280;2432;51.226;6.904;2022-07-22T07:44:31;101358.84;;;16.85;100.00
4836;BME280;2432;51.226;6.904;2022-07-22T07:46:58;101358.84;;;16.85;100.00
4836;BME280;2432;51.226;6.904;2022-07-22T07:49:24;101365.03;;;16.85;100.00
4836;BME280;2432;51.226;6.904;2022-07-22T07:51:51;101354.41;;;16.87;100.00
4836;BME280;2432;51.226;6.904;2022-07-22T07:54:18;101352.63;;;16.87;100.00
4836;BME280;2432;51.226;6.904;2022-07-22T07:56:47;101345.50;;;16.89;100.00
4836;BME280;2432;51.226;6.904;2022-07-22T07:59:14;101350.72;;;16.91;100.00
4836;BME280;2432;51.226;6.904;2022-07-22T08:01:54;101351.53;;;16.93;100.00
4836;BME280;2432;51.226;6.904;2022-07-22T08:04:25;101348.72;;;16.98;100.00
4836;BME280;2432;51.226;6.904;2022-07-22T08:07:06;101351.31;;;16.99;100.00
4836;BME280;2432;51.226;6.904;2022-07-22T08:09:33;101351.13;;;17.05;100.00
4836;BME280;2432;51.226;6.904;2022-07-22T08:12:02;101351.13;;;17.05;100.00
4836;BME280;2432;51.226;6.904;2022-07-22T08:14:30;101350.19;;;17.06;100.00
4836;BME280;2432;51.226;6.904;2022-07-22T08:16:57;101351.91;;;17.07;100.00
4836;BME280;2432;51.226;6.904;2022-07-22T08:19:24;101351.84;;;17.09;100.00
4836;BME280;2432;51.226;6.904;2022-07-22T08:21:51;101348.22;;;17.11;100.00
4836;BME280;2432;51.226;6.904;2022-07-22T08:24:17;101345.66;;;17.10;100.00
4836;BME280;2432;51.226;6.904;2022-07-22T08:26:44;101353.50;;;17.13;100.00
4836;BME280;2432;51.226;6.904;2022-07-22T08:29:10;101347.22;;;17.15;100.00
4836;BME280;2432;51.226;6.904;2022-07-22T08:31:37;101356.72;;;17.21;100.00
4836;BME280;2432;51.226;6.904;2022-07-22T08:34:04;101355.81;;;17.22;100.00
4836;BME280;2432;51.226;6.904;2022-07-22T08:36:31;101345.09;;;17.25;100.00
4836;BME280;2432;51.226;6.904;2022-07-22T08:38:57;101357.41;;;17.26;100.00
4836;BME280;2432;51.226;6.904;2022-07-22T08:41:25;101360.97;;;17.25;100.00
4836;BME280;2432;51.226;6.904;2022-07-22T08:43:52;101360.91;;;17.27;100.00
4836;BME280;2432;51.226;6.904;2022-07-22T08:46:20;101362.72;;;17.26;100.00
4836;BME280;2432;51.226;6.904;2022-07-22T08:48:46;101370.59;;;17.28;100.00
4836;BME280;2432;51.226;6.904;2022-07-22T08:51:15;101367.84;;;17.31;100.00
4836;BME280;2432;51.226;6.904;2022-07-22T08:53:42;101367.13;;;17.26;100.00
4836;BME280;2432;51.226;6.904;2022-07-22T08:56:12;101366.22;;;17.27;100.00
4836;BME280;2432;51.226;6.904;2022-07-22T08:58:39;101369.00;;;17.23;100.00
4836;BME280;2432;51.226;6.904;2022-07-22T09:01:11;101369.00;;;17.23;100.00
4836;BME280;2432;51.226;6.904;2022-07-22T09:03:47;101371.84;;;17.17;100.00
4836;BME280;2432;51.226;6.904;2022-07-22T09:06:17;101370.00;;;17.19;100.00
4836;BME280;2432;51.226;6.904;2022-07-22T09:11:26;101370.59;;;17.28;100.00
4836;BME280;2432;51.226;6.904;2022-07-22T09:13:55;101366.22;;;17.27;100.00
4836;BME280;2432;51.226;6.904;2022-07-22T09:16:46;101367.03;;;17.29;100.00
4836;BME280;2432;51.226;6.904;2022-07-22T09:19:14;101362.78;;;17.24;100.00
4836;BME280;2432;51.226;6.904;2022-07-22T09:21:43;101357.94;;;17.12;100.00
4836;BME280;2432;51.226;6.904;2022-07-22T09:24:31;101357.75;;;17.17;100.00
4836;BME280;2432;51.226;6.904;2022-07-22T09:26:57;101358.78;;;17.13;100.00
4836;BME280;2432;51.226;6.904;2022-07-22T09:29:25;101358.66;;;17.16;100.00
4836;BME280;2432;51.226;6.904;2022-07-22T09:32:01;101358.06;;;17.08;100.00
4836;BME280;2432;51.226;6.904;2022-07-22T09:34:32;101368.28;;;17.18;100.00
4836;BME280;2432;51.226;6.904;2022-07-22T09:37:01;101367.09;;;17.27;100.00
4836;BME280;2432;51.226;6.904;2022-07-22T09:39:30;101370.50;;;17.31;100.00
4836;BME280;2432;51.226;6.904;2022-07-22T09:42:02;101378.44;;;17.31;100.00
4836;BME280;2432;51.226;6.904;2022-07-22T09:44:29;101384.59;;;17.31;100.00
4836;BME280;2432;51.226;6.904;2022-07-22T09:46:55;101379.19;;;17.34;100.00
4836;BME280;2432;51.226;6.904;2022-07-22T09:49:37;101383.22;;;17.21;100.00
4836;BME280;2432;51.226;6.904;2022-07-22T09:52:07;101372.06;;;17.11;100.00
4836;BME280;2432;51.226;6.904;2022-07-22T09:54:33;101372.88;;;17.13;100.00
4836;BME280;2432;51.226;6.904;2022-07-22T09:57:00;101379.03;;;17.14;100.00
4836;BME280;2432;51.226;6.904;2022-07-22T09:59:26;101370.13;;;17.16;100.00
4836;BME280;2432;51.226;6.904;2022-07-22T10:01:58;101370.00;;;17.19;100.00
4836;BME280;2432;51.226;6.904;2022-07-22T10:04:29;101365.53;;;17.21;100.00
4836;BME280;2432;51.226;6.904;2022-07-22T10:06:58;101358.00;;;17.34;100.00
4836;BME280;2432;51.226;6.904;2022-07-22T10:09:26;101347.84;;;17.47;100.00
4836;BME280;2432;51.226;6.904;2022-07-22T10:11:53;101342.94;;;17.60;100.00
4836;BME280;2432;51.226;6.904;2022-07-22T10:14:21;101346.28;;;17.65;100.00
4836;BME280;2432;51.226;6.904;2022-07-22T10:16:48;101350.50;;;17.70;100.00
4836;BME280;2432;51.226;6.904;2022-07-22T10:19:16;101345.31;;;17.67;100.00
4836;BME280;2432;51.226;6.904;2022-07-22T10:21:42;101340.78;;;17.71;100.00
4836;BME280;2432;51.226;6.904;2022-07-22T10:26:55;101335.59;;;17.91;100.00
4836;BME280;2432;51.226;6.904;2022-07-22T10:29:38;101338.84;;;17.98;100.00
4836;BME280;2432;51.226;6.904;2022-07-22T10:32:33;101322.59;;;18.07;100.00
4836;BME280;2432;51.226;6.904;2022-07-22T10:48:14;101316.41;;;18.28;100.00
4836;BME280;2432;51.226;6.904;2022-07-22T10:50:43;101317.91;;;18.35;100.00
4836;BME280;2432;51.226;6.904;2022-07-22T10:53:13;101314.56;;;18.30;100.00
4836;BME280;2432;51.226;6.904;2022-07-22T11:01:07;101314.19;;;18.40;100.00
4836;BME280;2432;51.226;6.904;2022-07-22T11:03:35;101308.75;;;18.43;100.00
4836;BME280;2432;51.226;6.904;2022-07-22T11:08:49;101322.50;;;18.52;100.00
4836;BME280;2432;51.226;6.904;2022-07-22T11:11:17;101325.00;;;18.55;100.00
4836;BME280;2432;51.226;6.904;2022-07-22T11:13:45;101308.84;;;18.61;100.00
4836;BME280;2432;51.226;6.904;2022-07-22T11:16:23;101311.44;;;18.63;100.00
4836;BME280;2432;51.226;6.904;2022-07-22T11:19:01;101305.75;;;18.72;100.00
4836;BME280;2432;51.226;6.904;2022-07-22T11:21:31;101308.28;;;18.75;100.00
4836;BME280;2432;51.226;6.904;2022-07-22T11:24:07;101308.94;;;18.80;100.00
4836;BME280;2432;51.226;6.904;2022-07-22T11:26:49;101298.78;;;18.90;100.00
4836;BME280;2432;51.226;6.904;2022-07-22T11:31:44;101296.66;;;18.98;100.00
4836;BME280;2432;51.226;6.904;2022-07-22T11:34:15;101291.97;;;19.05;100.00
4836;BME280;2432;51.226;6.904;2022-07-22T11:36:45;101299.84;;;19.06;100.00
4836;BME280;2432;51.226;6.904;2022-07-22T11:39:13;101296.94;;;18.92;100.00
4836;BME280;2432;51.226;6.904;2022-07-22T11:41:41;101291.69;;;18.90;100.00
4836;BME280;2432;51.226;6.904;2022-07-22T11:44:07;101293.75;;;18.84;100.00
4836;BME280;2432;51.226;6.904;2022-07-22T11:46:36;101283.53;;;18.75;100.00
4836;BME280;2432;51.226;6.904;2022-07-22T11:49:04;101286.09;;;18.76;100.00
4836;BME280;2432;51.226;6.904;2022-07-22T11:51:33;101285.75;;;18.85;100.00
4836;BME280;2432;51.226;6.904;2022-07-22T11:54:00;101286.53;;;18.87;100.00
4836;BME280;2432;51.226;6.904;2022-07-22T11:56:27;101278.94;;;18.99;100.00
4836;BME280;2432;51.226;6.904;2022-07-22T11:58:54;101280.06;;;19.13;100.00
4836;BME280;2432;51.226;6.904;2022-07-22T12:01:23;101275.78;;;19.30;100.00
4836;BME280;2432;51.226;6.904;2022-07-22T12:04:11;101278.63;;;19.25;100.00
4836;BME280;2432;51.226;6.904;2022-07-22T12:06:41;101268.50;;;19.14;100.00
4836;BME280;2432;51.226;6.904;2022-07-22T12:09:13;101266.84;;;19.12;100.00
4836;BME280;2432;51.226;6.904;2022-07-22T12:11:42;101264.25;;;19.10;100.00
4836;BME280;2432;51.226;6.904;2022-07-22T12:14:11;101265.94;;;19.13;100.00
4836;BME280;2432;51.226;6.904;2022-07-22T12:16:44;101262.06;;;19.20;100.00
4836;BME280;2432;51.226;6.904;2022-07-22T12:19:19;101264.00;;;19.35;100.00
4836;BME280;2432;51.226;6.904;2022-07-22T12:22:05;101262.19;;;19.56;100.00
4836;BME280;2432;51.226;6.904;2022-07-22T12:24:40;101255.53;;;19.84;100.00
4836;BME280;2432;51.226;6.904;2022-07-22T12:27:12;101252.53;;;20.09;100.00
4836;BME280;2432;51.226;6.904;2022-07-22T12:32:27;101249.59;;;20.67;100.00
4836;BME280;2432;51.226;6.904;2022-07-22T12:37:31;101244.03;;;20.88;100.00
4836;BME280;2432;51.226;6.904;2022-07-22T12:40:00;101245.81;;;20.88;100.00
4836;BME280;2432;51.226;6.904;2022-07-22T12:42:29;101237.91;;;20.86;100.00
4836;BME280;2432;51.226;6.904;2022-07-22T12:47:49;101239.44;;;20.57;100.00
4836;BME280;2432;51.226;6.904;2022-07-22T12:50:39;101237.56;;;20.59;100.00
4836;BME280;2432;51.226;6.904;2022-07-22T12:58:10;101230.22;;;20.98;100.00
4836;BME280;2432;51.226;6.904;2022-07-22T13:00:40;101231.06;;;20.98;100.00
4836;BME280;2432;51.226;6.904;2022-07-22T13:03:07;101223.69;;;21.03;100.00
4836;BME280;2432;51.226;6.904;2022-07-22T13:05:34;101220.41;;;20.98;100.00
4836;BME280;2432;51.226;6.904;2022-07-22T13:08:02;101217.56;;;20.85;100.00
4836;BME280;2432;51.226;6.904;2022-07-22T13:10:34;101219.31;;;20.69;100.00
4836;BME280;2432;51.226;6.904;2022-07-22T13:13:02;101213.41;;;20.80;100.00
4836;BME280;2432;51.226;6.904;2022-07-22T13:15:28;101203.75;;;20.62;100.00
4836;BME280;2432;51.226;6.904;2022-07-22T13:17:55;101208.13;;;20.63;100.00
4836;BME280;2432;51.226;6.904;2022-07-22T13:20:21;101210.84;;;20.78;100.00
4836;BME280;2432;51.226;6.904;2022-07-22T13:22:50;101209.53;;;20.70;100.00
4836;BME280;2432;51.226;6.904;2022-07-22T13:25:16;101216.63;;;21.02;100.00
4836;BME280;2432;51.226;6.904;2022-07-22T13:27:43;101212.94;;;21.38;100.00
4836;BME280;2432;51.226;6.904;2022-07-22T13:30:10;101207.25;;;21.44;100.00
4836;BME280;2432;51.226;6.904;2022-07-22T13:32:40;101207.06;;;21.63;100.00
4836;BME280;2432;51.226;6.904;2022-07-22T13:35:15;101195.44;;;21.80;100.00
4836;BME280;2432;51.226;6.904;2022-07-22T13:37:42;101200.25;;;21.89;100.00
4836;BME280;2432;51.226;6.904;2022-07-22T13:40:09;101193.69;;;21.94;100.00
4836;BME280;2432;51.226;6.904;2022-07-22T13:42:36;101190.28;;;21.92;100.00
4836;BME280;2432;51.226;6.904;2022-07-22T13:45:03;101197.31;;;21.63;95.96
4836;BME280;2432;51.226;6.904;2022-07-22T13:47:31;101197.19;;;21.33;100.00